createdAt,value
2023-01-11T00:00:40.691Z,65.20
2023-01-11T00:03:11.137Z,63.50
2023-01-11T00:05:42.063Z,63.00
2023-01-11T00:08:12.906Z,64.40
2023-01-11T00:10:45.167Z,64.60
2023-01-11T00:13:17.144Z,63.00
2023-01-11T00:15:47.706Z,62.60
2023-01-11T00:18:20.358Z,62.90
2023-01-11T00:20:50.551Z,61.40
2023-01-11T00:23:20.891Z,61.30
2023-01-11T00:25:52.742Z,61.60
2023-01-11T00:28:23.272Z,64.00
2023-01-11T00:30:53.645Z,64.30
2023-01-11T00:33:23.723Z,63.50
2023-01-11T00:35:54.236Z,63.50
2023-01-11T00:38:42.077Z,64.60
2023-01-11T00:41:33.189Z,64.60
2023-01-11T00:44:20.920Z,65.00
2023-01-11T00:47:08.445Z,64.60
2023-01-11T00:49:39.084Z,65.70
2023-01-11T00:52:10.837Z,65.80
2023-01-11T00:54:41.784Z,67.00
2023-01-11T00:57:13.746Z,67.10
2023-01-11T00:59:44.273Z,64.70
2023-01-11T01:02:15.832Z,65.00
2023-01-11T01:04:46.765Z,64.90
2023-01-11T01:07:17.434Z,64.00
2023-01-11T01:09:47.715Z,63.80
2023-01-11T01:12:40.466Z,62.90
2023-01-11T01:15:10.682Z,62.60
2023-01-11T01:17:43.471Z,62.70
2023-01-11T01:20:14.718Z,62.70
2023-01-11T01:22:45.028Z,62.20
2023-01-11T01:25:15.262Z,61.80
2023-01-11T01:27:48.229Z,61.30
2023-01-11T01:30:18.966Z,62.20
2023-01-11T01:32:48.917Z,63.30
2023-01-11T01:35:19.511Z,63.90
2023-01-11T01:37:49.734Z,63.60
2023-01-11T01:40:20.388Z,62.90
2023-01-11T01:42:56.428Z,63.20
2023-01-11T01:45:29.427Z,62.80
2023-01-11T01:48:02.673Z,61.00
2023-01-11T01:50:37.335Z,60.20
2023-01-11T01:53:12.704Z,60.80
2023-01-11T01:55:47.253Z,61.30
2023-01-11T01:58:24.171Z,60.20
2023-01-11T02:00:54.607Z,59.50
2023-01-11T02:03:29.140Z,58.80
2023-01-11T02:05:59.559Z,58.00
2023-01-11T02:08:37.046Z,56.90
2023-01-11T02:11:29.176Z,57.60
2023-01-11T02:14:03.086Z,58.40
2023-01-11T02:16:33.722Z,58.90
2023-01-11T02:19:04.356Z,57.50
2023-01-11T02:21:48.597Z,57.70
2023-01-11T02:24:50.868Z,58.60
2023-01-11T02:27:33.384Z,57.20
2023-01-11T02:30:23.167Z,58.40
2023-01-11T02:33:01.367Z,58.70
2023-01-11T02:35:43.466Z,58.80
2023-01-11T02:38:23.315Z,59.50
2023-01-11T02:40:59.065Z,60.00
2023-01-11T02:43:50.383Z,60.30
2023-01-11T02:46:32.162Z,60.80
2023-01-11T02:49:08.531Z,60.70
2023-01-11T02:51:43.373Z,59.50
2023-01-11T02:54:17.585Z,59.00
2023-01-11T02:56:50.872Z,60.00
2023-01-11T02:59:24.996Z,59.00
2023-01-11T03:01:57.354Z,60.40
2023-01-11T03:04:30.269Z,60.40
2023-01-11T03:07:23.916Z,59.30
2023-01-11T03:10:05.609Z,58.70
2023-01-11T03:12:55.387Z,60.20
2023-01-11T03:15:59.278Z,58.50
2023-01-11T03:18:42.415Z,56.50
2023-01-11T03:21:26.059Z,58.00
2023-01-11T03:24:05.605Z,59.60
2023-01-11T03:26:43.099Z,59.70
2023-01-11T03:29:18.738Z,60.10
2023-01-11T03:31:55.207Z,59.20
2023-01-11T03:34:34.842Z,60.60
2023-01-11T03:37:10.284Z,60.60
2023-01-11T03:39:46.662Z,60.70
2023-01-11T03:42:19.747Z,60.50
2023-01-11T03:44:54.055Z,61.10
2023-01-11T03:47:28.176Z,61.40
2023-01-11T03:50:05.371Z,61.40
2023-01-11T03:52:39.473Z,61.50
2023-01-11T03:55:14.595Z,62.10
2023-01-11T03:57:51.828Z,61.60
2023-01-11T04:00:23.295Z,62.10
2023-01-11T04:02:54.696Z,60.40
2023-01-11T04:05:26.468Z,59.50
2023-01-11T04:07:57.491Z,61.20
2023-01-11T04:10:27.927Z,61.80
2023-01-11T04:12:59.267Z,62.20
2023-01-11T04:15:30.930Z,62.40
2023-01-11T04:18:05.786Z,62.30
2023-01-11T04:20:38.636Z,61.90
2023-01-11T04:23:11.855Z,63.00
2023-01-11T04:25:42.046Z,63.00
2023-01-11T04:28:12.368Z,63.60
2023-01-11T04:30:42.325Z,64.10
2023-01-11T04:33:13.946Z,65.30
2023-01-11T04:35:45.696Z,65.30
2023-01-11T04:38:15.806Z,64.70
2023-01-11T04:40:45.840Z,64.90
2023-01-11T04:43:14.949Z,65.90
2023-01-11T04:45:45.178Z,67.40
2023-01-11T04:48:16.187Z,67.60
2023-01-11T04:50:51.430Z,68.00
2023-01-11T04:53:21.787Z,67.80
2023-01-11T04:55:53.194Z,68.20
2023-01-11T04:58:23.309Z,68.60
2023-01-11T05:00:53.469Z,68.80
2023-01-11T05:03:23.745Z,69.30
2023-01-11T05:06:02.063Z,69.90
2023-01-11T05:08:33.034Z,70.60
2023-01-11T05:11:04.881Z,71.10
2023-01-11T05:13:44.525Z,71.10
2023-01-11T05:16:16.182Z,71.90
2023-01-11T05:18:47.528Z,71.60
2023-01-11T05:21:21.224Z,71.70
2023-01-11T05:23:52.886Z,71.90
2023-01-11T05:26:24.936Z,71.40
2023-01-11T05:28:56.696Z,71.60
2023-01-11T05:31:27.444Z,72.10
2023-01-11T05:33:59.612Z,72.40
2023-01-11T05:36:31.964Z,72.90
2023-01-11T05:39:02.614Z,73.20
2023-01-11T05:41:32.936Z,73.00
2023-01-11T05:44:16.757Z,72.50
2023-01-11T05:46:47.529Z,73.10
2023-01-11T05:49:18.540Z,73.80
2023-01-11T05:51:50.295Z,72.90
2023-01-11T05:54:20.818Z,71.80
2023-01-11T05:56:50.933Z,72.20
2023-01-11T05:59:21.265Z,71.20
2023-01-11T06:01:52.031Z,70.20
2023-01-11T06:04:22.114Z,71.10
2023-01-11T06:06:53.797Z,70.30
2023-01-11T06:09:23.963Z,69.00
2023-01-11T06:11:54.115Z,69.70
2023-01-11T06:14:24.256Z,70.20
2023-01-11T06:16:55.310Z,69.50
2023-01-11T06:19:25.496Z,69.40
2023-01-11T06:21:57.159Z,68.90
2023-01-11T06:24:27.576Z,68.50
2023-01-11T06:27:01.698Z,68.30
2023-01-11T06:29:32.215Z,67.30
2023-01-11T06:32:02.422Z,67.20
2023-01-11T06:34:32.550Z,66.80
2023-01-11T06:37:04.618Z,67.50
2023-01-11T06:39:34.834Z,66.60
2023-01-11T06:42:05.054Z,66.20
2023-01-11T06:44:35.379Z,66.60
2023-01-11T06:47:05.311Z,66.10
2023-01-11T06:49:38.203Z,65.90
2023-01-11T06:52:09.860Z,66.20
2023-01-11T06:54:40.066Z,65.40
2023-01-11T06:57:10.354Z,68.20
2023-01-11T06:59:40.847Z,68.40
2023-01-11T07:02:12.284Z,67.10
2023-01-11T07:04:42.738Z,66.60
2023-01-11T07:07:15.358Z,64.90
2023-01-11T07:09:45.581Z,65.00
2023-01-11T07:12:15.506Z,66.10
2023-01-11T07:14:45.810Z,66.50
2023-01-11T07:17:15.940Z,66.70
2023-01-11T07:19:46.071Z,66.90
2023-01-11T07:22:18.026Z,65.80
2023-01-11T07:24:48.559Z,65.80
2023-01-11T07:27:21.559Z,65.70
2023-01-11T07:30:00.479Z,66.30
2023-01-11T07:32:31.194Z,66.90
2023-01-11T07:35:01.314Z,66.00
2023-01-11T07:37:33.359Z,65.10
2023-01-11T07:40:04.637Z,64.70
2023-01-11T07:42:51.956Z,64.20
2023-01-11T07:45:24.232Z,63.10
2023-01-11T07:47:57.007Z,62.70
2023-01-11T07:50:27.336Z,62.10
2023-01-11T07:52:59.186Z,61.80
2023-01-11T07:55:29.195Z,61.60
2023-01-11T07:57:59.327Z,61.50
2023-01-11T08:00:29.961Z,61.10
2023-01-11T08:03:00.057Z,60.60
2023-01-11T08:05:30.499Z,60.50
2023-01-11T08:08:02.354Z,61.40
2023-01-11T08:10:33.722Z,63.00
2023-01-11T08:13:21.129Z,62.50
2023-01-11T08:15:55.563Z,60.60
2023-01-11T08:18:25.582Z,58.50
2023-01-11T08:20:58.447Z,59.90
2023-01-11T08:23:31.646Z,59.40
2023-01-11T08:26:01.866Z,58.70
2023-01-11T08:28:32.672Z,59.50
2023-01-11T08:31:03.080Z,58.60
2023-01-11T08:33:33.136Z,58.70
2023-01-11T08:36:08.066Z,58.00
2023-01-11T08:38:40.252Z,57.80
2023-01-11T08:41:12.729Z,58.80
2023-01-11T08:43:44.268Z,59.00
2023-01-11T08:46:14.520Z,59.40
2023-01-11T08:48:44.660Z,58.90
2023-01-11T08:51:15.161Z,60.50
2023-01-11T08:53:46.901Z,62.60
2023-01-11T08:56:17.259Z,63.80
2023-01-11T08:58:47.339Z,64.10
2023-01-11T09:01:17.417Z,65.90
2023-01-11T09:03:47.620Z,66.70
2023-01-11T09:06:19.439Z,67.20
2023-01-11T09:08:51.499Z,67.40
2023-01-11T09:11:38.515Z,66.80
2023-01-11T09:14:08.931Z,64.20
2023-01-11T09:16:38.958Z,65.10
2023-01-11T09:19:09.178Z,63.20
2023-01-11T09:21:39.229Z,62.90
2023-01-11T09:24:11.357Z,63.80
2023-01-11T09:26:42.099Z,63.20
2023-01-11T09:29:12.555Z,63.20
2023-01-11T09:31:43.218Z,63.60
2023-01-11T09:34:13.916Z,63.30
2023-01-11T09:36:45.194Z,60.40
2023-01-11T09:39:20.048Z,60.80
2023-01-11T09:42:21.225Z,62.30
2023-01-11T09:44:57.464Z,64.40
2023-01-11T09:47:39.893Z,65.90
2023-01-11T09:50:19.416Z,67.00
2023-01-11T09:52:53.940Z,67.10
2023-01-11T09:55:33.699Z,67.10
2023-01-11T09:58:29.708Z,66.30
2023-01-11T10:01:09.629Z,66.90
2023-01-11T10:04:22.900Z,67.50
2023-01-11T10:07:13.610Z,66.80
2023-01-11T10:18:32.460Z,65.70
2023-01-11T10:19:30.872Z,66.90
2023-01-11T10:21:54.963Z,67.40
2023-01-11T10:24:29.814Z,66.10
2023-01-11T10:27:05.074Z,63.90
2023-01-11T10:29:50.508Z,63.60
2023-01-11T10:32:53.698Z,63.40
2023-01-11T10:35:47.582Z,62.70
2023-01-11T10:38:48.920Z,59.20
2023-01-11T10:41:26.679Z,58.80
2023-01-11T10:44:11.900Z,56.90
2023-01-11T10:46:47.040Z,53.30
2023-01-11T10:49:33.787Z,53.00
2023-01-11T10:52:19.321Z,54.70
2023-01-11T10:54:55.167Z,54.10
2023-01-11T10:57:59.534Z,53.00
2023-01-11T11:00:37.193Z,51.30
2023-01-11T11:03:40.378Z,53.00
2023-01-11T11:06:21.046Z,53.50
2023-01-11T11:08:59.359Z,53.50
2023-01-11T11:11:33.683Z,54.40
2023-01-11T11:14:07.289Z,53.80
2023-01-11T11:16:52.248Z,53.90
2023-01-11T11:19:27.492Z,54.60
2023-01-11T11:21:59.035Z,53.30
2023-01-11T11:24:35.821Z,53.00
2023-01-11T11:27:14.065Z,52.10
2023-01-11T11:29:46.365Z,52.00
2023-01-11T11:32:22.466Z,52.60
2023-01-11T11:34:53.903Z,53.00
2023-01-11T11:37:29.239Z,53.20
2023-01-11T11:39:59.444Z,52.90
2023-01-11T11:42:29.899Z,53.30
2023-01-11T11:45:29.760Z,53.60
2023-01-11T11:48:04.749Z,51.60
2023-01-11T11:50:45.184Z,52.20
2023-01-11T11:53:32.434Z,51.60
2023-01-11T11:56:17.895Z,50.80
2023-01-11T11:58:48.538Z,52.10
2023-01-11T12:01:25.609Z,53.10
2023-01-11T12:03:59.018Z,53.00
2023-01-11T12:06:31.684Z,52.70
2023-01-11T12:09:04.875Z,52.90
2023-01-11T12:11:38.387Z,53.20
2023-01-11T12:14:19.687Z,53.40
2023-01-11T12:16:50.395Z,54.10
2023-01-11T12:19:42.328Z,55.30
2023-01-11T12:22:19.315Z,55.70
2023-01-11T12:25:06.423Z,55.00
2023-01-11T12:27:43.179Z,55.00
2023-01-11T12:30:24.583Z,55.80
2023-01-11T12:33:10.054Z,56.80
2023-01-11T12:35:50.217Z,57.80
2023-01-11T12:38:32.409Z,59.00
2023-01-11T12:41:17.792Z,59.50
2023-01-11T12:44:02.349Z,61.40
2023-01-11T12:46:48.751Z,60.80
2023-01-11T12:49:45.489Z,61.90
2023-01-11T12:52:39.888Z,60.70
2023-01-11T12:55:26.886Z,63.70
2023-01-11T12:58:08.697Z,63.70
2023-01-11T13:01:18.711Z,64.60
2023-01-11T13:04:18.653Z,63.70
2023-01-11T13:06:57.278Z,63.10
2023-01-11T13:09:37.706Z,61.60
2023-01-11T13:12:14.506Z,60.90
2023-01-11T13:15:08.795Z,59.60
2023-01-11T13:17:48.024Z,60.10
2023-01-11T13:20:34.196Z,60.40
2023-01-11T13:23:17.351Z,59.80
2023-01-11T13:25:53.302Z,58.10
2023-01-11T13:28:31.937Z,58.20
2023-01-11T13:31:06.507Z,57.50
2023-01-11T13:33:40.775Z,56.80
2023-01-11T13:36:23.131Z,55.90
2023-01-11T13:39:00.577Z,55.80
2023-01-11T13:41:37.336Z,55.00
2023-01-11T13:44:14.530Z,55.50
2023-01-11T13:47:00.214Z,55.90
2023-01-11T13:49:53.789Z,56.30
2023-01-11T13:52:31.477Z,56.00
2023-01-11T13:55:09.006Z,56.00
2023-01-11T13:57:53.650Z,56.40
2023-01-11T14:00:28.659Z,57.40
2023-01-11T14:03:05.952Z,57.70
2023-01-11T14:05:43.024Z,56.90
2023-01-11T14:08:39.365Z,56.70
2023-01-11T14:11:18.895Z,55.40
2023-01-11T14:14:20.756Z,55.40
2023-01-11T14:17:25.022Z,54.00
2023-01-11T14:20:05.035Z,55.30
2023-01-11T14:22:42.165Z,56.10
2023-01-11T14:25:20.832Z,56.60
2023-01-11T14:28:17.063Z,57.70
2023-01-11T14:31:10.182Z,57.80
2023-01-11T14:34:13.210Z,58.90
2023-01-11T14:37:25.651Z,58.50
2023-01-11T14:40:26.664Z,58.20
2023-01-11T14:43:20.538Z,59.20
2023-01-11T14:46:17.324Z,60.70
2023-01-11T14:48:55.303Z,61.40
2023-01-11T14:51:33.559Z,62.10
2023-01-11T14:54:12.738Z,61.90
2023-01-11T14:56:55.442Z,62.80
2023-01-11T14:59:37.350Z,63.40
2023-01-11T15:02:18.633Z,64.00
2023-01-11T15:05:15.893Z,64.40
2023-01-11T15:07:46.205Z,64.80
2023-01-11T15:10:46.706Z,65.10
2023-01-11T15:13:22.267Z,65.30
2023-01-11T15:16:11.912Z,65.80
2023-01-11T15:18:48.430Z,65.30
2023-01-11T15:21:20.792Z,65.70
2023-01-11T15:23:54.815Z,66.30
2023-01-11T15:26:28.045Z,65.40
2023-01-11T15:29:01.703Z,66.90
2023-01-11T15:31:45.174Z,67.60
2023-01-11T15:34:27.046Z,68.20
2023-01-11T15:37:14.763Z,68.90
2023-01-11T15:39:49.905Z,69.10
2023-01-11T15:42:54.635Z,68.80
2023-01-11T15:46:02.855Z,69.80
2023-01-11T15:48:46.489Z,69.60
2023-01-11T15:51:39.128Z,70.90
2023-01-11T15:54:38.624Z,71.40
2023-01-11T15:57:30.678Z,71.10
2023-01-11T16:00:40.670Z,71.40
2023-01-11T16:03:54.622Z,72.20
2023-01-11T16:06:35.433Z,72.50
2023-01-11T16:09:33.014Z,72.70
2023-01-11T16:12:19.402Z,72.30
2023-01-11T16:15:23.822Z,72.50
2023-01-11T16:17:54.143Z,73.20
2023-01-11T16:20:28.251Z,73.30
2023-01-11T16:23:02.259Z,74.00
2023-01-11T16:25:35.181Z,74.60
2023-01-11T16:28:07.311Z,74.90
2023-01-11T16:30:40.425Z,75.30
2023-01-11T16:33:18.201Z,76.20
2023-01-11T16:35:48.941Z,76.70
2023-01-11T16:38:22.044Z,77.00
2023-01-11T16:40:56.286Z,77.40
2023-01-11T16:43:30.152Z,78.20
2023-01-11T16:46:04.124Z,78.80
2023-01-11T16:48:36.541Z,79.90
2023-01-11T16:51:10.392Z,79.60
2023-01-11T16:53:42.669Z,80.40
2023-01-11T16:56:18.871Z,81.50
2023-01-11T16:59:08.746Z,82.50
2023-01-11T17:01:54.099Z,82.90
2023-01-11T17:04:32.852Z,83.50
2023-01-11T17:07:16.282Z,83.10
2023-01-11T17:09:46.448Z,82.60
2023-01-11T17:12:18.941Z,83.50
2023-01-11T17:15:05.166Z,86.00
2023-01-11T17:17:40.240Z,87.60
2023-01-11T17:20:20.705Z,87.80
2023-01-11T17:22:54.376Z,88.00
2023-01-11T17:25:37.262Z,88.20
2023-01-11T17:28:19.723Z,87.00
2023-01-11T17:30:52.796Z,85.90
2023-01-11T17:33:34.064Z,83.70
2023-01-11T17:36:05.317Z,83.20
2023-01-11T17:38:35.735Z,81.60
2023-01-11T17:41:28.719Z,81.40
2023-01-11T17:44:17.353Z,81.10
2023-01-11T17:46:48.453Z,80.50
2023-01-11T17:49:26.023Z,80.10
2023-01-11T17:51:57.500Z,79.50
2023-01-11T17:54:34.918Z,80.00
2023-01-11T17:57:05.240Z,80.40
2023-01-11T17:59:36.390Z,79.80
2023-01-11T18:02:12.900Z,79.80
2023-01-11T18:04:46.263Z,80.30
2023-01-11T18:07:19.710Z,79.40
2023-01-11T18:09:52.140Z,80.10
2023-01-11T18:12:23.882Z,80.60
2023-01-11T18:14:57.070Z,81.00
2023-01-11T18:17:37.218Z,81.60
2023-01-11T18:20:39.712Z,82.20
2023-01-11T18:23:23.183Z,82.80
2023-01-11T18:26:14.044Z,84.20
2023-01-11T18:28:44.255Z,84.40
2023-01-11T18:31:14.439Z,85.60
2023-01-11T18:33:45.325Z,85.90
2023-01-11T18:36:24.243Z,88.80
2023-01-11T18:38:54.597Z,90.00
2023-01-11T18:41:48.453Z,90.20
2023-01-11T18:44:19.185Z,90.20
2023-01-11T18:46:49.303Z,90.20
2023-01-11T18:49:21.052Z,90.70
2023-01-11T18:51:52.823Z,91.10
2023-01-11T18:54:23.440Z,90.90
2023-01-11T18:56:53.661Z,91.60
2023-01-11T18:59:24.303Z,91.30
2023-01-11T19:02:11.795Z,91.50
2023-01-11T19:04:45.033Z,91.60
2023-01-11T19:07:17.398Z,92.00
2023-01-11T19:09:47.612Z,92.20
2023-01-11T19:12:17.931Z,91.80
2023-01-11T19:14:48.659Z,92.30
2023-01-11T19:17:18.992Z,91.90
2023-01-11T19:19:49.615Z,91.70
2023-01-11T19:22:23.441Z,92.10
2023-01-11T19:24:56.612Z,92.80
2023-01-11T19:27:26.841Z,93.00
2023-01-11T19:29:58.721Z,92.60
2023-01-11T19:32:28.724Z,92.70
2023-01-11T19:34:58.943Z,92.30
2023-01-11T19:37:33.052Z,91.70
2023-01-11T19:40:03.991Z,91.50
2023-01-11T19:42:34.722Z,90.40
2023-01-11T19:45:05.447Z,90.40
2023-01-11T19:47:35.484Z,90.40
2023-01-11T19:50:06.005Z,89.30
2023-01-11T19:52:38.057Z,89.20
2023-01-11T19:55:09.003Z,88.90
2023-01-11T19:57:39.014Z,90.00
2023-01-11T20:00:12.886Z,89.50
2023-01-11T20:02:44.472Z,88.20
2023-01-11T20:05:15.523Z,88.10
2023-01-11T20:07:47.986Z,88.90
2023-01-11T20:10:19.847Z,89.90
2023-01-11T20:12:50.582Z,90.10
2023-01-11T20:15:22.246Z,88.10
2023-01-11T20:17:52.479Z,86.80
2023-01-11T20:20:22.912Z,85.20
2023-01-11T20:22:55.782Z,85.40
2023-01-11T20:25:25.888Z,85.80
2023-01-11T20:27:56.193Z,85.10
2023-01-11T20:30:28.903Z,85.80
2023-01-11T20:32:59.023Z,85.90
2023-01-11T20:35:29.955Z,86.60
2023-01-11T20:38:02.332Z,85.30
2023-01-11T20:40:32.537Z,83.80
2023-01-11T20:43:02.671Z,82.50
2023-01-11T20:45:33.497Z,82.30
2023-01-11T20:48:03.721Z,81.70
2023-01-11T20:50:33.671Z,81.60
2023-01-11T20:53:06.321Z,80.10
2023-01-11T20:55:36.631Z,80.30
2023-01-11T20:58:06.665Z,80.60
2023-01-11T21:00:36.883Z,81.10
2023-01-11T21:03:07.440Z,79.60
2023-01-11T21:05:40.087Z,79.20
2023-01-11T21:08:11.954Z,79.30
2023-01-11T21:10:41.962Z,79.00
2023-01-11T21:13:12.288Z,79.30
2023-01-11T21:15:42.977Z,79.00
2023-01-11T21:18:13.539Z,78.70
2023-01-11T21:20:49.812Z,78.00
2023-01-11T21:23:21.687Z,77.90
2023-01-11T21:25:52.921Z,78.90
2023-01-11T21:28:23.343Z,78.20
2023-01-11T21:30:53.614Z,76.60
2023-01-11T21:33:23.790Z,76.10
2023-01-11T21:35:54.017Z,76.50
2023-01-11T21:38:25.977Z,75.90
2023-01-11T21:40:56.191Z,74.90
2023-01-11T21:43:26.510Z,74.00
2023-01-11T21:45:57.452Z,73.10
2023-01-11T21:48:27.472Z,72.70
2023-01-11T21:50:57.690Z,73.30
2023-01-11T21:53:32.070Z,74.70
2023-01-11T21:56:05.294Z,76.50
2023-01-11T21:58:35.631Z,77.40
2023-01-11T22:01:13.018Z,76.90
2023-01-11T22:03:43.687Z,76.70
2023-01-11T22:06:16.193Z,74.60
2023-01-11T22:08:49.103Z,73.10
2023-01-11T22:11:20.265Z,71.50
2023-01-11T22:13:50.779Z,72.20
2023-01-11T22:16:22.467Z,73.70
2023-01-11T22:18:52.972Z,73.20
2023-01-11T22:21:23.803Z,73.80
2023-01-11T22:23:58.541Z,73.90
2023-01-11T22:26:30.667Z,73.80
2023-01-11T22:29:16.935Z,72.50
2023-01-11T22:31:50.012Z,72.00
2023-01-11T22:34:21.023Z,72.20
2023-01-11T22:36:51.652Z,71.90
2023-01-11T22:39:24.632Z,71.50
2023-01-11T22:41:54.755Z,70.20
2023-01-11T22:44:25.288Z,69.40
2023-01-11T22:46:55.403Z,69.50
2023-01-11T22:49:25.834Z,68.80
2023-01-11T22:51:55.934Z,68.10
2023-01-11T22:54:28.281Z,67.40
2023-01-11T22:56:59.077Z,67.00
2023-01-11T22:59:30.192Z,67.10
2023-01-11T23:02:00.206Z,67.40
2023-01-11T23:04:30.441Z,68.10
2023-01-11T23:07:00.541Z,70.00
2023-01-11T23:09:32.505Z,72.20
2023-01-11T23:12:20.039Z,76.40
2023-01-11T23:14:50.362Z,80.30
2023-01-11T23:17:21.205Z,84.00
2023-01-11T23:19:51.211Z,88.10
2023-01-11T23:22:21.341Z,91.90
2023-01-11T23:24:53.203Z,93.50
2023-01-11T23:27:23.514Z,95.80
2023-01-11T23:29:53.432Z,98.20
2023-01-11T23:32:23.567Z,99.00
2023-01-11T23:34:53.773Z,99.50
2023-01-11T23:37:24.114Z,99.90
2023-01-11T23:40:04.873Z,99.90
2023-01-11T23:42:36.206Z,99.90
2023-01-11T23:45:07.254Z,99.90
2023-01-11T23:47:36.035Z,99.90
2023-01-11T23:50:06.883Z,99.90
2023-01-11T23:52:37.303Z,99.90
2023-01-11T23:55:10.912Z,99.90
2023-01-11T23:58:01.304Z,99.90
